Strona główna
METAR-TAF:

METAR-TAF

Lotnisko :

Baza lotnicza

Landivisiau, Francja

Szerokość geograficzna: 48-31N, Długość geograficzna: 004-09W, wysokość: 106 m

Aktualna obserwacja pogody

Raport powstał 35 minut temu, godzina 16:00 UTC
Wiatr 12 kt od południowy zachód
Temperatura 11°C
Wilgotność 100%
Ciśnienie 1014 hPa
Widzialność: 0450 m
Mgła w płatach

METAR: LFRJ 271600Z AUTO 23012KT 1400 0450 R25/1400U R07/P2000 BCFG VV/// 11/11 Q1014 TEMPO 0600 FG

czas: 17:35 (16:35 UTC)

Prognoza

Raport powstał 1 godzina i 3 minut temu, godzina 15:32 UTC
Prognoza ważna od 27 godzina 15 UTC do 27 godzina 24 UTC
Wiatr 12 kt od południowy zachód
Widzialność: 8000 m
Zachmurzenie całkowite na wysokości 200 ft
Przejściowo
od 27 godzina 15 UTC do 27 godzina 24 UTC
Widzialność: 1200 m
słaby mżawka, zamglenie
Prawdopodobieństwo 40%
od 27 godzina 15 UTC do 27 godzina 24 UTC
Widzialność: 0600 m
mgła

TAF: LFRJ 271532Z 2715/2724 23012KT 8000 OVC002 TEMPO 2715/2724 1200 -DZ BR PROB40 2715/2724 0600 FG VV///

Obserwacja i prognoza pogody dla ponad 4000 lotnisk (raport METAR i TAF).

Dostępne stacje oznaczono żółtymi i czerwonymi punktami na mapie.

Najedź kursorem aby zobaczyć nazwę stacji.

Kliknij aby zobaczyć obserwacje i prognozy pogody.

Aby zmienić mapę: kliknij na zielony przycisk z czarnym krzyżykiem, aby powiększyć; na zielony przycisk z myślnikiem, aby pomniejszyć; na zielone strzałki, aby przejść do map sąsiednich.


METAR-TAF: